createdAt,value
2023-06-06T00:01:58.980Z,100021.48
2023-06-06T00:04:28.860Z,100021.88
2023-06-06T00:06:58.443Z,100020.58
2023-06-06T00:09:26.515Z,100024.83
2023-06-06T00:11:56.431Z,100029.17
2023-06-06T00:14:26.138Z,100027.94
2023-06-06T00:16:57.288Z,100029.70
2023-06-06T00:19:26.029Z,100033.27
2023-06-06T00:21:54.346Z,100035.01
2023-06-06T00:24:22.927Z,100033.27
2023-06-06T00:26:51.109Z,100035.70
2023-06-06T00:29:19.544Z,100038.14
2023-06-06T00:31:47.616Z,100035.29
2023-06-06T00:34:16.277Z,100041.33
2023-06-06T00:36:45.231Z,100041.98
2023-06-06T00:39:13.458Z,100040.86
2023-06-06T00:41:41.679Z,100040.83
2023-06-06T00:44:09.750Z,100042.64
2023-06-06T00:46:37.959Z,100042.62
2023-06-06T00:49:06.103Z,100043.73
2023-06-06T00:51:35.092Z,100043.00
2023-06-06T00:54:03.469Z,100046.77
2023-06-06T00:56:31.668Z,100048.60
2023-06-06T00:58:59.615Z,100050.39
2023-06-06T01:01:30.538Z,100051.41
2023-06-06T01:04:00.900Z,100050.67
2023-06-06T01:06:34.992Z,100053.54
2023-06-06T01:09:07.561Z,100054.98
2023-06-06T01:11:51.963Z,100058.73
2023-06-06T01:14:28.331Z,100061.35
2023-06-06T01:16:59.332Z,100061.02
2023-06-06T01:19:31.287Z,100066.17
2023-06-06T01:22:00.492Z,100068.03
2023-06-06T01:24:29.777Z,100065.80
2023-06-06T01:26:58.055Z,100063.74
2023-06-06T01:29:26.258Z,100065.00
2023-06-06T01:32:12.227Z,100066.39
2023-06-06T01:34:45.769Z,100068.45
2023-06-06T01:37:20.496Z,100071.21
2023-06-06T01:39:49.130Z,100073.67
2023-06-06T01:42:17.322Z,100072.77
2023-06-06T01:44:45.842Z,100075.45
2023-06-06T01:47:14.061Z,100076.45
2023-06-06T01:49:42.227Z,100075.97
2023-06-06T01:52:10.314Z,100079.58
2023-06-06T01:54:42.059Z,100081.66
2023-06-06T01:57:10.262Z,100084.40
2023-06-06T01:59:40.421Z,100087.60
2023-06-06T02:02:08.940Z,100091.63
2023-06-06T02:04:38.142Z,100094.83
2023-06-06T02:07:06.922Z,100091.75
2023-06-06T02:09:35.443Z,100092.54
2023-06-06T02:12:04.089Z,100088.31
2023-06-06T02:14:32.269Z,100096.12
2023-06-06T02:17:00.549Z,100093.23
2023-06-06T02:19:29.120Z,100098.20
2023-06-06T02:21:57.092Z,100097.02
2023-06-06T02:24:28.957Z,100096.10
2023-06-06T02:26:57.735Z,100095.77
2023-06-06T02:29:26.216Z,100100.48
2023-06-06T02:31:54.807Z,100107.03
2023-06-06T02:34:23.176Z,100110.67
2023-06-06T02:36:52.818Z,100109.20
2023-06-06T02:39:22.416Z,100109.94
2023-06-06T02:41:53.848Z,100104.95
2023-06-06T02:44:22.968Z,100112.63
2023-06-06T02:46:51.036Z,100114.20
2023-06-06T02:49:19.384Z,100112.60
2023-06-06T02:51:48.139Z,100113.63
2023-06-06T02:54:16.758Z,100116.41
2023-06-06T02:56:44.859Z,100118.64
2023-06-06T02:59:13.004Z,100115.21
2023-06-06T03:01:46.238Z,100113.70
2023-06-06T03:04:15.677Z,100114.87
2023-06-06T03:06:43.974Z,100118.00
2023-06-06T03:09:14.508Z,100121.50
2023-06-06T03:11:42.920Z,100121.70
2023-06-06T03:14:13.019Z,100118.33
2023-06-06T03:16:43.392Z,100119.46
2023-06-06T03:19:13.650Z,100116.55
2023-06-06T03:21:43.050Z,100117.70
2023-06-06T03:24:11.807Z,100106.29
2023-06-06T03:26:41.194Z,100108.89
2023-06-06T03:29:10.443Z,100110.31
2023-06-06T03:31:39.364Z,100111.46
2023-06-06T03:34:08.735Z,100108.59
2023-06-06T03:36:37.831Z,100112.42
2023-06-06T03:39:08.454Z,100108.21
2023-06-06T03:41:36.337Z,100112.80
2023-06-06T03:44:04.930Z,100114.67
2023-06-06T03:46:33.289Z,100113.84
2023-06-06T03:49:02.083Z,100108.43
2023-06-06T03:51:30.317Z,100109.14
2023-06-06T03:53:58.421Z,100113.81
2023-06-06T03:56:26.592Z,100115.48
2023-06-06T03:58:54.970Z,100112.10
2023-06-06T04:01:23.153Z,100104.92
2023-06-06T04:03:51.394Z,100106.35
2023-06-06T04:06:21.440Z,100103.29
2023-06-06T04:08:49.658Z,100106.80
2023-06-06T04:11:17.890Z,100108.98
2023-06-06T04:13:46.370Z,100109.52
2023-06-06T04:16:14.493Z,100111.25
2023-06-06T04:18:42.917Z,100111.08
2023-06-06T04:21:11.244Z,100111.13
2023-06-06T04:23:41.971Z,100114.31
2023-06-06T04:26:23.307Z,100116.91
2023-06-06T04:28:54.423Z,100116.86
2023-06-06T04:31:23.657Z,100115.41
2023-06-06T04:33:57.818Z,100113.02
2023-06-06T04:36:28.493Z,100110.81
2023-06-06T04:39:01.846Z,100106.83
2023-06-06T04:44:06.132Z,100112.03
2023-06-06T04:46:34.435Z,100118.17
2023-06-06T04:49:03.142Z,100115.17
2023-06-06T04:51:32.049Z,100117.36
2023-06-06T04:54:05.016Z,100118.77
2023-06-06T04:56:33.533Z,100118.90
2023-06-06T04:59:08.225Z,100120.86
2023-06-06T05:01:39.048Z,100121.79
2023-06-06T05:04:09.122Z,100120.09
2023-06-06T05:06:37.613Z,100114.89
2023-06-06T05:09:06.463Z,100121.20
2023-06-06T05:11:35.403Z,100116.13
2023-06-06T05:14:04.483Z,100123.44
2023-06-06T05:16:32.775Z,100126.84
2023-06-06T05:19:01.091Z,100125.17
2023-06-06T05:21:29.485Z,100126.64
2023-06-06T05:24:00.339Z,100125.23
2023-06-06T05:26:29.485Z,100120.50
2023-06-06T05:28:58.746Z,100120.72
2023-06-06T05:31:27.285Z,100118.20
2023-06-06T05:33:56.537Z,100118.85
2023-06-06T05:36:24.498Z,100119.83
2023-06-06T05:38:53.079Z,100119.59
2023-06-06T05:41:22.275Z,100117.66
2023-06-06T05:43:50.350Z,100114.38
2023-06-06T05:46:19.073Z,100111.08
2023-06-06T05:48:47.310Z,100113.11
2023-06-06T05:51:15.598Z,100112.04
2023-06-06T05:53:47.446Z,100110.16
2023-06-06T05:56:15.963Z,100108.40
2023-06-06T05:58:48.753Z,100111.05
2023-06-06T06:01:18.460Z,100113.98
2023-06-06T06:03:50.264Z,100115.33
2023-06-06T06:06:20.536Z,100115.05
2023-06-06T06:08:51.356Z,100106.96
2023-06-06T06:11:21.191Z,100102.50
2023-06-06T06:13:49.627Z,100103.86
2023-06-06T06:16:17.782Z,100102.90
2023-06-06T06:18:46.315Z,100105.09
2023-06-06T06:21:14.668Z,100099.02
2023-06-06T06:23:43.888Z,100099.34
2023-06-06T06:26:12.159Z,100098.25
2023-06-06T06:28:40.306Z,100099.42
2023-06-06T06:31:08.912Z,100097.78
2023-06-06T06:33:37.891Z,100092.23
2023-06-06T06:36:06.564Z,100090.13
2023-06-06T06:38:35.005Z,100092.48
2023-06-06T06:41:03.221Z,100095.96
2023-06-06T06:43:31.599Z,100093.56
2023-06-06T06:46:07.059Z,100088.06
2023-06-06T06:48:35.020Z,100088.75
2023-06-06T06:51:03.153Z,100087.98
2023-06-06T06:53:31.862Z,100090.34
2023-06-06T06:56:00.180Z,100089.19
2023-06-06T06:58:35.681Z,100090.89
2023-06-06T07:01:04.181Z,100089.58
2023-06-06T07:03:38.594Z,100092.96
2023-06-06T07:06:09.127Z,100097.70
2023-06-06T07:08:37.399Z,100097.53
2023-06-06T07:11:05.795Z,100098.25
2023-06-06T07:13:34.259Z,100097.52
2023-06-06T07:16:02.674Z,100095.70
2023-06-06T07:18:30.946Z,100098.61
2023-06-06T07:20:59.489Z,100101.40
2023-06-06T07:23:27.597Z,100098.92
2023-06-06T07:25:55.635Z,100099.58
2023-06-06T07:28:24.836Z,100095.73
2023-06-06T07:30:53.247Z,100092.17
2023-06-06T07:33:22.130Z,100097.03
2023-06-06T07:35:50.712Z,100099.45
2023-06-06T07:38:18.961Z,100095.14
2023-06-06T07:40:47.240Z,100090.61
2023-06-06T07:43:15.312Z,100089.27
2023-06-06T07:45:43.588Z,100087.86
2023-06-06T07:48:12.331Z,100081.58
2023-06-06T07:50:40.484Z,100078.42
2023-06-06T07:53:08.615Z,100073.63
2023-06-06T07:55:36.889Z,100072.94
2023-06-06T07:58:11.618Z,100072.32
2023-06-06T08:00:46.050Z,100071.48
2023-06-06T08:03:16.704Z,100070.60
2023-06-06T08:05:45.096Z,100071.00
2023-06-06T08:08:13.444Z,100070.52
2023-06-06T08:10:41.635Z,100068.11
2023-06-06T08:13:09.992Z,100071.33
2023-06-06T08:15:38.350Z,100063.73
2023-06-06T08:18:06.601Z,100059.29
2023-06-06T08:20:35.006Z,100054.28
2023-06-06T08:23:04.630Z,100051.60
2023-06-06T08:25:34.731Z,100047.41
2023-06-06T08:28:02.940Z,100049.60
2023-06-06T08:30:31.082Z,100051.19
2023-06-06T08:32:59.488Z,100044.83
2023-06-06T08:35:28.776Z,100048.56
2023-06-06T08:37:56.931Z,100046.91
2023-06-06T08:40:25.218Z,100039.69
2023-06-06T08:42:53.836Z,100042.45
2023-06-06T08:45:22.991Z,100033.67
2023-06-06T08:47:51.338Z,100031.54
2023-06-06T08:50:19.885Z,100034.40
2023-06-06T08:52:48.223Z,100030.70
2023-06-06T08:55:16.402Z,100031.33
2023-06-06T08:57:47.534Z,100033.38
2023-06-06T09:00:23.060Z,100032.96
2023-06-06T09:02:53.709Z,100027.05
2023-06-06T09:05:22.341Z,100023.21
2023-06-06T09:07:51.239Z,100018.70
2023-06-06T09:10:19.678Z,100016.96
2023-06-06T09:12:48.260Z,100015.84
2023-06-06T09:15:16.740Z,100020.09
2023-06-06T09:17:46.424Z,100013.56
2023-06-06T09:20:18.273Z,100007.77
2023-06-06T09:22:48.955Z,100007.20
2023-06-06T09:25:21.453Z,100009.59
2023-06-06T09:27:54.298Z,100008.73
2023-06-06T09:30:24.093Z,100005.23
2023-06-06T09:32:58.715Z,100001.94
2023-06-06T09:35:37.461Z,100001.88
2023-06-06T09:38:26.026Z,99997.52
2023-06-06T09:40:54.173Z,99997.52
2023-06-06T09:43:26.649Z,99997.67
2023-06-06T09:45:56.994Z,99994.23
2023-06-06T09:48:27.542Z,99991.17
2023-06-06T09:50:56.701Z,99989.90
2023-06-06T09:53:25.960Z,99992.14
2023-06-06T09:55:57.269Z,99986.08
2023-06-06T09:58:26.971Z,99980.81
2023-06-06T10:00:58.626Z,99978.07
2023-06-06T10:03:27.897Z,99981.73
2023-06-06T10:05:56.303Z,99980.63
2023-06-06T10:08:25.081Z,99976.85
2023-06-06T10:10:55.589Z,99978.99
2023-06-06T10:13:24.430Z,99975.48
2023-06-06T10:15:52.644Z,99974.28
2023-06-06T10:18:21.543Z,99975.27
2023-06-06T10:20:49.850Z,99975.61
2023-06-06T10:23:17.974Z,99978.75
2023-06-06T10:25:46.185Z,99978.88
2023-06-06T10:28:19.489Z,99979.06
2023-06-06T10:30:54.399Z,99973.96
2023-06-06T10:33:28.686Z,99976.55
2023-06-06T10:35:59.404Z,99978.41
2023-06-06T10:38:27.463Z,99973.36
2023-06-06T10:40:57.924Z,99981.77
2023-06-06T10:43:35.869Z,99987.36
2023-06-06T10:46:04.161Z,99982.44
2023-06-06T10:48:42.906Z,99983.76
2023-06-06T10:51:33.035Z,99984.80
2023-06-06T10:54:22.850Z,99979.88
2023-06-06T10:56:54.523Z,99982.20
2023-06-06T10:59:29.582Z,99980.55
2023-06-06T11:01:57.959Z,99979.03
2023-06-06T11:04:27.630Z,99981.58
2023-06-06T11:07:01.904Z,99974.14
2023-06-06T11:09:34.572Z,99973.83
2023-06-06T11:12:15.214Z,99972.02
2023-06-06T11:15:05.758Z,99966.02
2023-06-06T11:17:47.482Z,99969.48
2023-06-06T11:20:19.766Z,99972.44
2023-06-06T11:23:05.533Z,99972.40
2023-06-06T11:25:34.623Z,99970.77
2023-06-06T11:28:03.469Z,99975.73
2023-06-06T11:30:33.310Z,99975.52
2023-06-06T11:33:01.873Z,99977.27
2023-06-06T11:35:30.639Z,99975.11
2023-06-06T11:37:59.464Z,99973.54
2023-06-06T11:40:28.073Z,99973.55
2023-06-06T11:42:57.992Z,99974.10
2023-06-06T11:45:28.708Z,99975.77
2023-06-06T11:48:13.929Z,99975.30
2023-06-06T11:50:45.415Z,99980.85
2023-06-06T11:53:13.431Z,99978.83
2023-06-06T11:55:41.619Z,99974.98
2023-06-06T11:58:09.947Z,99972.27
2023-06-06T12:00:38.381Z,99973.42
2023-06-06T12:03:08.400Z,99969.56
2023-06-06T12:05:38.131Z,99968.80
2023-06-06T12:08:07.555Z,99967.87
2023-06-06T12:10:35.532Z,99961.21
2023-06-06T12:13:03.994Z,99958.50
2023-06-06T12:15:47.067Z,99952.70
2023-06-06T12:18:17.550Z,99949.00
2023-06-06T12:20:46.127Z,99949.77
2023-06-06T12:23:27.424Z,99947.46
2023-06-06T12:25:58.831Z,99949.19
2023-06-06T12:28:27.545Z,99950.54
2023-06-06T12:30:56.028Z,99947.61
2023-06-06T12:33:24.711Z,99941.63
2023-06-06T12:35:55.416Z,99949.54
2023-06-06T12:38:23.759Z,99949.42
2023-06-06T12:40:59.223Z,99946.23
2023-06-06T12:43:28.642Z,99944.85
2023-06-06T12:45:58.754Z,99943.14
2023-06-06T12:48:27.596Z,99938.63
2023-06-06T12:50:56.677Z,99933.55
2023-06-06T12:53:26.786Z,99933.66
2023-06-06T12:55:55.171Z,99930.58
2023-06-06T12:58:23.464Z,99923.66
2023-06-06T13:00:51.519Z,99919.66
2023-06-06T13:03:20.178Z,99916.56
2023-06-06T13:05:52.273Z,99918.02
2023-06-06T13:08:36.658Z,99919.60
2023-06-06T13:11:07.354Z,99913.21
2023-06-06T13:13:35.975Z,99910.65
2023-06-06T13:16:04.744Z,99907.95
2023-06-06T13:18:34.462Z,99909.73
2023-06-06T13:21:05.235Z,99906.85
2023-06-06T13:23:33.992Z,99905.46
2023-06-06T13:26:02.127Z,99901.80
2023-06-06T13:28:30.199Z,99902.58
2023-06-06T13:30:58.687Z,99898.86
2023-06-06T13:33:28.419Z,99885.34
2023-06-06T13:35:56.288Z,99888.73
2023-06-06T13:38:24.963Z,99884.27
2023-06-06T13:40:53.245Z,99881.36
2023-06-06T13:43:21.662Z,99880.86
2023-06-06T13:45:50.216Z,99877.44
2023-06-06T13:48:18.187Z,99877.98
2023-06-06T13:50:46.326Z,99873.56
2023-06-06T13:53:16.048Z,99871.36
2023-06-06T13:55:47.483Z,99868.55
2023-06-06T13:58:22.397Z,99870.36
2023-06-06T14:00:51.929Z,99865.93
2023-06-06T14:03:21.078Z,99868.59
2023-06-06T14:05:49.543Z,99869.20
2023-06-06T14:08:17.780Z,99870.38
2023-06-06T14:10:46.940Z,99871.56
2023-06-06T14:13:15.377Z,99866.27
2023-06-06T14:15:43.623Z,99863.91
2023-06-06T14:18:12.088Z,99862.13
2023-06-06T14:20:50.645Z,99860.45
2023-06-06T14:23:18.899Z,99857.43
2023-06-06T14:25:47.272Z,99853.11
2023-06-06T14:28:15.645Z,99851.50
2023-06-06T14:30:43.764Z,99852.37
2023-06-06T14:33:12.160Z,99848.23
2023-06-06T14:35:40.473Z,99850.76
2023-06-06T14:38:09.463Z,99850.77
2023-06-06T14:40:37.432Z,99849.77
2023-06-06T14:43:05.641Z,99847.33
2023-06-06T14:45:33.680Z,99845.77
2023-06-06T14:48:02.008Z,99841.14
2023-06-06T14:50:31.052Z,99843.16
2023-06-06T14:52:59.533Z,99839.71
2023-06-06T14:55:28.346Z,99843.14
2023-06-06T14:57:56.801Z,99844.56
2023-06-06T15:00:25.494Z,99848.86
2023-06-06T15:02:53.758Z,99847.05
2023-06-06T15:05:21.940Z,99847.18
2023-06-06T15:07:49.962Z,99849.62
2023-06-06T15:10:18.496Z,99844.35
2023-06-06T15:12:46.665Z,99845.10
2023-06-06T15:15:14.968Z,99844.20
2023-06-06T15:17:43.274Z,99843.54
2023-06-06T15:20:12.119Z,99843.36
2023-06-06T15:22:40.382Z,99840.10
2023-06-06T15:25:09.422Z,99842.51
2023-06-06T15:27:37.447Z,99838.02
2023-06-06T15:30:06.482Z,99841.28
2023-06-06T15:32:34.834Z,99845.02
2023-06-06T15:35:02.887Z,99843.85
2023-06-06T15:37:31.013Z,99845.47
2023-06-06T15:39:59.540Z,99846.85
2023-06-06T15:42:27.515Z,99843.55
2023-06-06T15:44:58.239Z,99842.34
2023-06-06T15:47:26.871Z,99844.48
2023-06-06T15:49:55.007Z,99841.67
2023-06-06T15:52:23.407Z,99842.86
2023-06-06T15:54:51.904Z,99839.71
2023-06-06T15:57:20.342Z,99840.06
2023-06-06T15:59:48.526Z,99834.77
2023-06-06T16:02:16.741Z,99838.06
2023-06-06T16:04:44.980Z,99836.90
2023-06-06T16:07:14.387Z,99838.52
2023-06-06T16:09:42.848Z,99842.45
2023-06-06T16:12:11.438Z,99840.60
2023-06-06T16:14:39.627Z,99843.16
2023-06-06T16:17:08.290Z,99850.64
2023-06-06T16:19:36.515Z,99847.39
2023-06-06T16:22:05.071Z,99846.27
2023-06-06T16:24:34.842Z,99846.52
2023-06-06T16:27:03.439Z,99847.61
2023-06-06T16:29:31.507Z,99854.44
2023-06-06T16:31:59.669Z,99850.36
2023-06-06T16:34:27.954Z,99851.11
2023-06-06T16:36:56.433Z,99851.04
2023-06-06T16:39:24.613Z,99851.54
2023-06-06T16:41:53.712Z,99849.67
2023-06-06T16:44:23.418Z,99846.09
2023-06-06T16:46:52.639Z,99848.34
2023-06-06T16:49:20.718Z,99844.14
2023-06-06T16:51:48.861Z,99846.62
2023-06-06T16:54:17.027Z,99848.16
2023-06-06T16:56:46.120Z,99850.12
2023-06-06T16:59:14.618Z,99849.61
2023-06-06T17:01:43.159Z,99851.30
2023-06-06T17:04:11.726Z,99851.42
2023-06-06T17:06:40.456Z,99852.69
2023-06-06T17:09:11.682Z,99856.24
2023-06-06T17:11:39.849Z,99857.07
2023-06-06T17:14:08.575Z,99856.97
2023-06-06T17:16:37.020Z,99853.47
2023-06-06T17:19:05.126Z,99856.27
2023-06-06T17:21:33.498Z,99855.23
2023-06-06T17:24:01.811Z,99852.12
2023-06-06T17:26:30.253Z,99853.77
2023-06-06T17:28:58.630Z,99853.10
2023-06-06T17:31:29.614Z,99856.70
2023-06-06T17:33:58.881Z,99859.52
2023-06-06T17:36:26.855Z,99859.27
2023-06-06T17:38:54.955Z,99860.80
2023-06-06T17:41:23.107Z,99864.61
2023-06-06T17:43:51.267Z,99861.19
2023-06-06T17:46:19.384Z,99859.76
2023-06-06T17:48:51.489Z,99864.55
2023-06-06T17:51:19.809Z,99862.34
2023-06-06T17:53:47.747Z,99866.41
2023-06-06T17:56:15.632Z,99864.77
2023-06-06T17:58:43.782Z,99864.96
2023-06-06T18:01:11.825Z,99863.98
2023-06-06T18:03:39.843Z,99867.34
2023-06-06T18:06:08.235Z,99868.83
2023-06-06T18:08:36.055Z,99870.85
2023-06-06T18:11:03.927Z,99877.17
2023-06-06T18:13:33.229Z,99874.93
2023-06-06T18:16:01.203Z,99875.66
2023-06-06T18:18:28.968Z,99876.83
2023-06-06T18:20:56.513Z,99881.86
2023-06-06T18:23:24.527Z,99882.11
2023-06-06T18:25:53.586Z,99881.17
2023-06-06T18:28:40.703Z,99887.27
2023-06-06T18:31:18.001Z,99889.83
2023-06-06T18:33:52.942Z,99893.58
2023-06-06T18:36:21.297Z,99895.17
2023-06-06T18:38:49.374Z,99897.66
2023-06-06T18:41:18.879Z,99891.52
2023-06-06T18:43:47.533Z,99894.80
2023-06-06T18:46:16.401Z,99895.35
2023-06-06T18:48:45.241Z,99892.23
2023-06-06T18:51:14.835Z,99900.24
2023-06-06T18:53:43.017Z,99897.77
2023-06-06T18:56:11.186Z,99905.02
2023-06-06T18:58:40.609Z,99909.16
2023-06-06T19:01:08.911Z,99908.31
2023-06-06T19:03:37.632Z,99907.33
2023-06-06T19:06:06.035Z,99905.29
2023-06-06T19:08:40.910Z,99906.25
2023-06-06T19:11:09.066Z,99908.66
2023-06-06T19:13:37.425Z,99909.45
2023-06-06T19:16:06.037Z,99908.51
2023-06-06T19:18:35.193Z,99911.41
2023-06-06T19:21:03.786Z,99913.08
2023-06-06T19:23:32.325Z,99917.45
2023-06-06T19:26:01.539Z,99919.09
2023-06-06T19:28:29.537Z,99919.64
2023-06-06T19:31:00.161Z,99920.24
2023-06-06T19:33:28.498Z,99923.34
2023-06-06T19:35:56.831Z,99925.59
2023-06-06T19:38:24.893Z,99926.24
2023-06-06T19:40:52.884Z,99923.23
2023-06-06T19:43:21.472Z,99923.80
2023-06-06T19:45:49.905Z,99925.39
2023-06-06T19:48:18.501Z,99929.24
2023-06-06T19:50:48.775Z,99923.98
2023-06-06T19:53:17.814Z,99925.88
2023-06-06T19:55:46.241Z,99925.10
2023-06-06T19:58:14.673Z,99927.27
2023-06-06T20:00:42.846Z,99929.56
2023-06-06T20:03:11.799Z,99933.52
2023-06-06T20:05:40.118Z,99929.38
2023-06-06T20:08:08.296Z,99933.78
2023-06-06T20:10:36.773Z,99935.26
2023-06-06T20:13:06.687Z,99937.24
2023-06-06T20:15:34.962Z,99935.78
2023-06-06T20:18:03.619Z,99934.98
2023-06-06T20:20:32.742Z,99936.69
2023-06-06T20:23:01.836Z,99937.63
2023-06-06T20:25:29.807Z,99939.95
2023-06-06T20:27:57.957Z,99940.63
2023-06-06T20:30:26.153Z,99941.73
2023-06-06T20:32:54.818Z,99945.98
2023-06-06T20:35:23.230Z,99949.15
2023-06-06T20:37:52.565Z,99948.25
2023-06-06T20:40:21.731Z,99952.02
2023-06-06T20:42:50.094Z,99950.55
2023-06-06T20:45:17.902Z,99951.58
2023-06-06T20:47:46.895Z,99954.34
2023-06-06T20:50:15.232Z,99951.35
2023-06-06T20:52:42.909Z,99953.95
2023-06-06T20:55:12.047Z,99951.64
2023-06-06T20:57:40.355Z,99952.46
2023-06-06T21:00:10.657Z,99952.55
2023-06-06T21:02:38.865Z,99951.42
2023-06-06T21:05:08.123Z,99950.75
2023-06-06T21:07:36.637Z,99956.02
2023-06-06T21:10:06.029Z,99959.02
2023-06-06T21:12:34.625Z,99956.04
2023-06-06T21:15:02.231Z,99956.54
2023-06-06T21:17:30.150Z,99953.66
2023-06-06T21:20:00.661Z,99959.56
2023-06-06T21:22:29.375Z,99956.11
2023-06-06T21:24:57.834Z,99961.23
2023-06-06T21:27:25.863Z,99959.02
2023-06-06T21:29:53.888Z,99959.29
2023-06-06T21:32:21.636Z,99962.34
2023-06-06T21:34:49.514Z,99964.04
2023-06-06T21:37:17.413Z,99962.32
2023-06-06T21:39:45.291Z,99966.39
2023-06-06T21:42:13.421Z,99966.55
2023-06-06T21:44:41.203Z,99960.90
2023-06-06T21:47:09.273Z,99963.67
2023-06-06T21:49:37.193Z,99961.40
2023-06-06T21:52:05.915Z,99960.48
2023-06-06T21:54:33.694Z,99955.50
2023-06-06T21:57:01.848Z,99949.98
2023-06-06T21:59:30.039Z,99950.89
2023-06-06T22:01:57.768Z,99946.17
2023-06-06T22:04:25.764Z,99946.80
2023-06-06T22:06:53.412Z,99951.62
2023-06-06T22:09:21.388Z,99951.42
2023-06-06T22:11:49.370Z,99951.14
2023-06-06T22:14:17.226Z,99947.27
2023-06-06T22:16:45.198Z,99947.15
2023-06-06T22:19:13.361Z,99946.73
2023-06-06T22:21:41.215Z,99946.59
2023-06-06T22:24:09.289Z,99945.73
2023-06-06T22:26:37.147Z,99947.18
2023-06-06T22:29:07.356Z,99947.41
2023-06-06T22:31:35.400Z,99950.29
2023-06-06T22:34:03.426Z,99947.55
2023-06-06T22:36:31.409Z,99951.71
2023-06-06T22:38:58.999Z,99949.96
2023-06-06T22:41:27.652Z,99948.74
2023-06-06T22:43:55.610Z,99953.80
2023-06-06T22:46:23.726Z,99955.18
2023-06-06T22:48:51.748Z,99951.98
2023-06-06T22:51:19.512Z,99952.59
2023-06-06T22:53:48.952Z,99950.05
2023-06-06T22:56:16.982Z,99954.19
2023-06-06T22:58:45.404Z,99947.54
2023-06-06T23:01:13.484Z,99949.89
2023-06-06T23:03:41.794Z,99951.16
2023-06-06T23:06:09.765Z,99946.16
2023-06-06T23:08:37.864Z,99945.05
2023-06-06T23:11:05.823Z,99941.89
2023-06-06T23:13:33.591Z,99939.31
2023-06-06T23:16:02.469Z,99941.94
2023-06-06T23:18:30.435Z,99939.56
2023-06-06T23:20:58.620Z,99938.95
2023-06-06T23:23:26.522Z,99941.36
2023-06-06T23:25:54.252Z,99941.02
2023-06-06T23:28:22.328Z,99941.33
2023-06-06T23:30:50.109Z,99939.85
2023-06-06T23:33:18.368Z,99937.44
2023-06-06T23:35:46.151Z,99937.66
2023-06-06T23:38:14.205Z,99934.84
2023-06-06T23:40:42.016Z,99933.39
2023-06-06T23:43:10.317Z,99935.61
2023-06-06T23:45:38.210Z,99939.30
2023-06-06T23:48:06.864Z,99942.24
2023-06-06T23:50:34.657Z,99940.23
2023-06-06T23:53:02.318Z,99937.02
2023-06-06T23:55:30.321Z,99939.86
2023-06-06T23:57:58.017Z,99935.63
